sensor_id;sensor_type;location;lat;lon;timestamp;temperature;humidity
4431;DHT22;2228;48.140;11.488;2022-12-18T00:01:16;-2.10;99.90
4431;DHT22;2228;48.140;11.488;2022-12-18T00:03:44;-2.20;99.90
4431;DHT22;2228;48.140;11.488;2022-12-18T00:06:11;-2.30;99.90
4431;DHT22;2228;48.140;11.488;2022-12-18T00:08:39;-2.40;1.00
4431;DHT22;2228;48.140;11.488;2022-12-18T00:11:07;-2.30;1.00
4431;DHT22;2228;48.140;11.488;2022-12-18T00:13:35;-2.30;1.00
4431;DHT22;2228;48.140;11.488;2022-12-18T00:16:02;-2.40;1.00
4431;DHT22;2228;48.140;11.488;2022-12-18T00:18:31;-2.40;1.00
4431;DHT22;2228;48.140;11.488;2022-12-18T00:20:59;-2.40;1.00
4431;DHT22;2228;48.140;11.488;2022-12-18T00:23:27;-2.40;1.00
4431;DHT22;2228;48.140;11.488;2022-12-18T00:25:54;-2.40;1.00
4431;DHT22;2228;48.140;11.488;2022-12-18T00:28:21;-2.50;1.00
4431;DHT22;2228;48.140;11.488;2022-12-18T00:30:48;-2.60;1.00
4431;DHT22;2228;48.140;11.488;2022-12-18T00:33:17;-2.60;1.00
4431;DHT22;2228;48.140;11.488;2022-12-18T00:35:45;-2.60;1.00
4431;DHT22;2228;48.140;11.488;2022-12-18T00:38:12;-2.60;1.00
4431;DHT22;2228;48.140;11.488;2022-12-18T00:40:39;-2.50;1.00
4431;DHT22;2228;48.140;11.488;2022-12-18T00:43:06;-2.50;1.00
4431;DHT22;2228;48.140;11.488;2022-12-18T00:45:32;-2.50;1.00
4431;DHT22;2228;48.140;11.488;2022-12-18T00:47:59;-2.40;1.00
4431;DHT22;2228;48.140;11.488;2022-12-18T00:50:27;-2.40;1.00
4431;DHT22;2228;48.140;11.488;2022-12-18T00:52:55;-2.50;1.00
4431;DHT22;2228;48.140;11.488;2022-12-18T00:55:22;-2.50;1.00
4431;DHT22;2228;48.140;11.488;2022-12-18T00:57:50;-2.50;1.00
4431;DHT22;2228;48.140;11.488;2022-12-18T01:00:18;-2.40;1.00
4431;DHT22;2228;48.140;11.488;2022-12-18T01:02:45;-2.40;1.00
4431;DHT22;2228;48.140;11.488;2022-12-18T01:05:13;-2.40;1.00
4431;DHT22;2228;48.140;11.488;2022-12-18T01:07:40;-2.30;1.00
4431;DHT22;2228;48.140;11.488;2022-12-18T01:10:10;-2.20;1.00
4431;DHT22;2228;48.140;11.488;2022-12-18T01:12:38;-2.30;1.00
4431;DHT22;2228;48.140;11.488;2022-12-18T01:15:06;-2.40;1.00
4431;DHT22;2228;48.140;11.488;2022-12-18T01:17:34;-2.30;1.00
4431;DHT22;2228;48.140;11.488;2022-12-18T01:20:01;-2.20;1.00
4431;DHT22;2228;48.140;11.488;2022-12-18T01:22:28;-2.30;1.00
4431;DHT22;2228;48.140;11.488;2022-12-18T01:24:55;-2.50;1.00
4431;DHT22;2228;48.140;11.488;2022-12-18T01:27:23;-2.40;1.00
4431;DHT22;2228;48.140;11.488;2022-12-18T01:29:51;-2.30;1.00
4431;DHT22;2228;48.140;11.488;2022-12-18T01:32:18;-2.40;1.00
4431;DHT22;2228;48.140;11.488;2022-12-18T01:34:45;-2.30;1.00
4431;DHT22;2228;48.140;11.488;2022-12-18T01:37:12;-2.20;1.00
4431;DHT22;2228;48.140;11.488;2022-12-18T01:39:39;-2.20;1.00
4431;DHT22;2228;48.140;11.488;2022-12-18T01:42:11;-2.20;99.90
4431;DHT22;2228;48.140;11.488;2022-12-18T01:44:57;-2.20;1.00
4431;DHT22;2228;48.140;11.488;2022-12-18T01:47:27;-2.30;1.00
4431;DHT22;2228;48.140;11.488;2022-12-18T01:49:56;-2.30;1.00
4431;DHT22;2228;48.140;11.488;2022-12-18T01:52:24;-2.30;1.00
4431;DHT22;2228;48.140;11.488;2022-12-18T01:54:53;-2.30;99.90
4431;DHT22;2228;48.140;11.488;2022-12-18T01:57:22;-2.40;1.00
4431;DHT22;2228;48.140;11.488;2022-12-18T01:59:52;-2.40;1.00
4431;DHT22;2228;48.140;11.488;2022-12-18T02:02:22;-2.40;1.00
4431;DHT22;2228;48.140;11.488;2022-12-18T02:04:49;-2.50;1.00
4431;DHT22;2228;48.140;11.488;2022-12-18T02:07:21;-2.50;1.00
4431;DHT22;2228;48.140;11.488;2022-12-18T02:09:56;-2.50;1.00
4431;DHT22;2228;48.140;11.488;2022-12-18T02:12:27;-2.60;1.00
4431;DHT22;2228;48.140;11.488;2022-12-18T02:15:02;-2.50;1.00
4431;DHT22;2228;48.140;11.488;2022-12-18T02:17:36;-2.50;1.00
4431;DHT22;2228;48.140;11.488;2022-12-18T02:20:09;-2.50;1.00
4431;DHT22;2228;48.140;11.488;2022-12-18T02:22:45;-2.50;1.00
4431;DHT22;2228;48.140;11.488;2022-12-18T02:25:28;-2.70;1.00
4431;DHT22;2228;48.140;11.488;2022-12-18T02:28:02;-2.70;1.00
4431;DHT22;2228;48.140;11.488;2022-12-18T02:30:31;-2.80;1.00
4431;DHT22;2228;48.140;11.488;2022-12-18T02:33:01;-2.80;1.00
4431;DHT22;2228;48.140;11.488;2022-12-18T02:35:30;-2.70;1.00
4431;DHT22;2228;48.140;11.488;2022-12-18T02:37:58;-2.70;1.00
4431;DHT22;2228;48.140;11.488;2022-12-18T02:40:26;-2.80;1.00
4431;DHT22;2228;48.140;11.488;2022-12-18T02:42:54;-2.70;1.00
4431;DHT22;2228;48.140;11.488;2022-12-18T02:45:22;-2.70;1.00
4431;DHT22;2228;48.140;11.488;2022-12-18T02:47:49;-2.70;1.00
4431;DHT22;2228;48.140;11.488;2022-12-18T02:50:22;-2.80;1.00
4431;DHT22;2228;48.140;11.488;2022-12-18T02:53:03;-2.70;1.00
4431;DHT22;2228;48.140;11.488;2022-12-18T02:55:43;-2.80;1.00
4431;DHT22;2228;48.140;11.488;2022-12-18T02:58:16;-2.70;1.00
4431;DHT22;2228;48.140;11.488;2022-12-18T03:00:51;-2.80;1.00
4431;DHT22;2228;48.140;11.488;2022-12-18T03:03:24;-2.90;1.00
4431;DHT22;2228;48.140;11.488;2022-12-18T03:05:53;-2.90;1.00
4431;DHT22;2228;48.140;11.488;2022-12-18T03:08:23;-2.90;1.00
4431;DHT22;2228;48.140;11.488;2022-12-18T03:10:53;-3.10;1.00
4431;DHT22;2228;48.140;11.488;2022-12-18T03:13:27;-3.10;1.00
4431;DHT22;2228;48.140;11.488;2022-12-18T03:15:57;-3.10;1.00
4431;DHT22;2228;48.140;11.488;2022-12-18T03:18:29;-3.00;1.00
4431;DHT22;2228;48.140;11.488;2022-12-18T03:21:00;-3.00;1.00
4431;DHT22;2228;48.140;11.488;2022-12-18T03:23:34;-3.10;1.00
4431;DHT22;2228;48.140;11.488;2022-12-18T03:26:05;-3.10;1.00
4431;DHT22;2228;48.140;11.488;2022-12-18T03:28:35;-3.10;1.00
4431;DHT22;2228;48.140;11.488;2022-12-18T03:31:08;-3.10;1.00
4431;DHT22;2228;48.140;11.488;2022-12-18T03:33:39;-3.00;1.00
4431;DHT22;2228;48.140;11.488;2022-12-18T03:36:08;-3.00;1.00
4431;DHT22;2228;48.140;11.488;2022-12-18T03:38:35;-2.90;1.00
4431;DHT22;2228;48.140;11.488;2022-12-18T03:41:07;-2.90;1.00
4431;DHT22;2228;48.140;11.488;2022-12-18T03:43:43;-2.80;1.00
4431;DHT22;2228;48.140;11.488;2022-12-18T03:46:23;-2.70;1.00
4431;DHT22;2228;48.140;11.488;2022-12-18T03:48:55;-2.80;1.00
4431;DHT22;2228;48.140;11.488;2022-12-18T03:51:27;-2.70;1.00
4431;DHT22;2228;48.140;11.488;2022-12-18T03:53:59;-2.70;1.00
4431;DHT22;2228;48.140;11.488;2022-12-18T03:56:31;-2.70;1.00
4431;DHT22;2228;48.140;11.488;2022-12-18T03:58:59;-2.60;1.00
4431;DHT22;2228;48.140;11.488;2022-12-18T04:01:32;-2.60;1.00
4431;DHT22;2228;48.140;11.488;2022-12-18T04:04:01;-2.60;1.00
4431;DHT22;2228;48.140;11.488;2022-12-18T04:06:29;-2.60;1.00
4431;DHT22;2228;48.140;11.488;2022-12-18T04:08:57;-2.70;1.00
4431;DHT22;2228;48.140;11.488;2022-12-18T04:11:25;-2.70;1.00
4431;DHT22;2228;48.140;11.488;2022-12-18T04:13:57;-2.70;1.00
4431;DHT22;2228;48.140;11.488;2022-12-18T04:16:24;-2.60;1.00
4431;DHT22;2228;48.140;11.488;2022-12-18T04:18:53;-2.60;1.00
4431;DHT22;2228;48.140;11.488;2022-12-18T04:21:20;-2.60;1.00
4431;DHT22;2228;48.140;11.488;2022-12-18T04:23:48;-2.50;1.00
4431;DHT22;2228;48.140;11.488;2022-12-18T04:26:15;-2.70;1.00
4431;DHT22;2228;48.140;11.488;2022-12-18T04:28:42;-2.50;1.00
4431;DHT22;2228;48.140;11.488;2022-12-18T04:31:09;-2.50;1.00
4431;DHT22;2228;48.140;11.488;2022-12-18T04:33:36;-2.50;1.00
4431;DHT22;2228;48.140;11.488;2022-12-18T04:36:05;-2.40;1.00
4431;DHT22;2228;48.140;11.488;2022-12-18T04:38:32;-2.50;1.00
4431;DHT22;2228;48.140;11.488;2022-12-18T04:40:59;-2.50;1.00
4431;DHT22;2228;48.140;11.488;2022-12-18T04:43:26;-2.40;1.00
4431;DHT22;2228;48.140;11.488;2022-12-18T04:45:53;-2.50;1.00
4431;DHT22;2228;48.140;11.488;2022-12-18T04:48:20;-2.40;1.00
4431;DHT22;2228;48.140;11.488;2022-12-18T04:50:47;-2.40;1.00
4431;DHT22;2228;48.140;11.488;2022-12-18T04:53:16;-2.40;1.00
4431;DHT22;2228;48.140;11.488;2022-12-18T04:55:43;-2.50;1.00
4431;DHT22;2228;48.140;11.488;2022-12-18T04:58:10;-2.40;1.00
4431;DHT22;2228;48.140;11.488;2022-12-18T05:00:36;-2.40;1.00
4431;DHT22;2228;48.140;11.488;2022-12-18T05:03:03;-2.40;99.90
4431;DHT22;2228;48.140;11.488;2022-12-18T05:05:31;-2.40;99.90
4431;DHT22;2228;48.140;11.488;2022-12-18T05:07:57;-2.40;1.00
4431;DHT22;2228;48.140;11.488;2022-12-18T05:10:26;-2.40;99.90
4431;DHT22;2228;48.140;11.488;2022-12-18T05:12:53;-2.50;99.90
4431;DHT22;2228;48.140;11.488;2022-12-18T05:15:28;-2.50;99.90
4431;DHT22;2228;48.140;11.488;2022-12-18T05:17:55;-2.60;99.90
4431;DHT22;2228;48.140;11.488;2022-12-18T05:20:23;-2.70;99.90
4431;DHT22;2228;48.140;11.488;2022-12-18T05:22:50;-2.70;1.00
4431;DHT22;2228;48.140;11.488;2022-12-18T05:25:17;-2.60;1.00
4431;DHT22;2228;48.140;11.488;2022-12-18T05:27:47;-2.60;99.90
4431;DHT22;2228;48.140;11.488;2022-12-18T05:30:14;-2.60;1.00
4431;DHT22;2228;48.140;11.488;2022-12-18T05:32:42;-2.50;1.00
4431;DHT22;2228;48.140;11.488;2022-12-18T05:35:10;-2.40;1.00
4431;DHT22;2228;48.140;11.488;2022-12-18T05:37:37;-2.50;99.90
4431;DHT22;2228;48.140;11.488;2022-12-18T05:40:06;-2.60;99.90
4431;DHT22;2228;48.140;11.488;2022-12-18T05:42:33;-2.40;1.00
4431;DHT22;2228;48.140;11.488;2022-12-18T05:45:02;-2.30;99.90
4431;DHT22;2228;48.140;11.488;2022-12-18T05:47:29;-2.30;99.90
4431;DHT22;2228;48.140;11.488;2022-12-18T05:49:56;-2.40;99.90
4431;DHT22;2228;48.140;11.488;2022-12-18T05:52:23;-2.40;99.90
4431;DHT22;2228;48.140;11.488;2022-12-18T05:54:50;-2.50;99.90
4431;DHT22;2228;48.140;11.488;2022-12-18T05:57:17;-2.60;99.90
4431;DHT22;2228;48.140;11.488;2022-12-18T05:59:44;-2.60;99.90
4431;DHT22;2228;48.140;11.488;2022-12-18T06:02:12;-2.60;99.90
4431;DHT22;2228;48.140;11.488;2022-12-18T06:04:39;-2.60;99.90
4431;DHT22;2228;48.140;11.488;2022-12-18T06:07:07;-2.60;99.90
4431;DHT22;2228;48.140;11.488;2022-12-18T06:09:34;-2.60;99.90
4431;DHT22;2228;48.140;11.488;2022-12-18T06:12:01;-2.50;99.90
4431;DHT22;2228;48.140;11.488;2022-12-18T06:14:28;-2.50;99.90
4431;DHT22;2228;48.140;11.488;2022-12-18T06:16:55;-2.50;99.90
4431;DHT22;2228;48.140;11.488;2022-12-18T06:19:24;-2.60;99.90
4431;DHT22;2228;48.140;11.488;2022-12-18T06:21:51;-2.50;99.90
4431;DHT22;2228;48.140;11.488;2022-12-18T06:24:18;-2.60;99.90
4431;DHT22;2228;48.140;11.488;2022-12-18T06:26:45;-2.70;99.90
4431;DHT22;2228;48.140;11.488;2022-12-18T06:29:12;-2.60;99.90
4431;DHT22;2228;48.140;11.488;2022-12-18T06:31:39;-2.60;99.90
4431;DHT22;2228;48.140;11.488;2022-12-18T06:34:06;-2.60;99.90
4431;DHT22;2228;48.140;11.488;2022-12-18T06:36:34;-2.60;99.90
4431;DHT22;2228;48.140;11.488;2022-12-18T06:39:01;-2.50;99.90
4431;DHT22;2228;48.140;11.488;2022-12-18T06:41:28;-2.50;99.90
4431;DHT22;2228;48.140;11.488;2022-12-18T06:43:55;-2.60;99.90
4431;DHT22;2228;48.140;11.488;2022-12-18T06:46:24;-2.60;99.90
4431;DHT22;2228;48.140;11.488;2022-12-18T06:48:51;-2.70;99.90
4431;DHT22;2228;48.140;11.488;2022-12-18T06:51:19;-2.70;99.90
4431;DHT22;2228;48.140;11.488;2022-12-18T06:53:48;-2.80;99.90
4431;DHT22;2228;48.140;11.488;2022-12-18T06:56:16;-2.80;99.90
4431;DHT22;2228;48.140;11.488;2022-12-18T06:58:43;-2.70;99.90
4431;DHT22;2228;48.140;11.488;2022-12-18T07:01:11;-2.80;99.90
4431;DHT22;2228;48.140;11.488;2022-12-18T07:03:39;-2.70;99.90
4431;DHT22;2228;48.140;11.488;2022-12-18T07:06:11;-2.70;99.90
4431;DHT22;2228;48.140;11.488;2022-12-18T07:08:40;-2.70;99.90
4431;DHT22;2228;48.140;11.488;2022-12-18T07:11:08;-2.70;99.90
4431;DHT22;2228;48.140;11.488;2022-12-18T07:13:36;-2.70;99.90
4431;DHT22;2228;48.140;11.488;2022-12-18T07:16:05;-2.70;99.90
4431;DHT22;2228;48.140;11.488;2022-12-18T07:18:32;-2.70;99.90
4431;DHT22;2228;48.140;11.488;2022-12-18T07:21:03;-2.60;99.90
4431;DHT22;2228;48.140;11.488;2022-12-18T07:23:31;-2.60;99.90
4431;DHT22;2228;48.140;11.488;2022-12-18T07:26:01;-2.40;99.90
4431;DHT22;2228;48.140;11.488;2022-12-18T07:28:30;-2.40;99.90
4431;DHT22;2228;48.140;11.488;2022-12-18T07:30:57;-2.40;99.90
4431;DHT22;2228;48.140;11.488;2022-12-18T07:33:25;-2.40;99.90
4431;DHT22;2228;48.140;11.488;2022-12-18T07:35:52;-2.50;99.90
4431;DHT22;2228;48.140;11.488;2022-12-18T07:38:19;-2.40;99.90
4431;DHT22;2228;48.140;11.488;2022-12-18T07:40:46;-2.40;99.90
4431;DHT22;2228;48.140;11.488;2022-12-18T07:43:13;-2.40;99.90
4431;DHT22;2228;48.140;11.488;2022-12-18T07:45:42;-2.40;99.90
4431;DHT22;2228;48.140;11.488;2022-12-18T07:48:09;-2.40;99.90
4431;DHT22;2228;48.140;11.488;2022-12-18T07:50:37;-2.50;99.90
4431;DHT22;2228;48.140;11.488;2022-12-18T07:53:04;-2.50;99.90
4431;DHT22;2228;48.140;11.488;2022-12-18T07:55:31;-2.50;99.90
4431;DHT22;2228;48.140;11.488;2022-12-18T07:58:01;-2.30;99.90
4431;DHT22;2228;48.140;11.488;2022-12-18T08:00:29;-2.40;99.90
4431;DHT22;2228;48.140;11.488;2022-12-18T08:02:57;-2.40;99.90
4431;DHT22;2228;48.140;11.488;2022-12-18T08:05:25;-2.30;99.90
4431;DHT22;2228;48.140;11.488;2022-12-18T08:07:52;-2.20;99.90
4431;DHT22;2228;48.140;11.488;2022-12-18T08:10:20;-2.10;99.90
4431;DHT22;2228;48.140;11.488;2022-12-18T08:12:49;-2.10;99.90
4431;DHT22;2228;48.140;11.488;2022-12-18T08:15:16;-2.00;99.90
4431;DHT22;2228;48.140;11.488;2022-12-18T08:17:43;-2.30;99.90
4431;DHT22;2228;48.140;11.488;2022-12-18T08:20:12;-2.50;99.90
4431;DHT22;2228;48.140;11.488;2022-12-18T08:22:40;-2.30;99.90
4431;DHT22;2228;48.140;11.488;2022-12-18T08:25:08;-2.10;99.90
4431;DHT22;2228;48.140;11.488;2022-12-18T08:27:35;-2.00;99.90
4431;DHT22;2228;48.140;11.488;2022-12-18T08:30:03;-2.20;99.90
4431;DHT22;2228;48.140;11.488;2022-12-18T08:32:31;-2.10;99.90
4431;DHT22;2228;48.140;11.488;2022-12-18T08:34:59;-2.00;99.90
4431;DHT22;2228;48.140;11.488;2022-12-18T08:37:31;-2.10;99.90
4431;DHT22;2228;48.140;11.488;2022-12-18T08:39:58;-2.00;99.90
4431;DHT22;2228;48.140;11.488;2022-12-18T08:42:25;-1.80;99.90
4431;DHT22;2228;48.140;11.488;2022-12-18T08:45:10;-1.70;99.90
4431;DHT22;2228;48.140;11.488;2022-12-18T08:47:37;-1.80;99.90
4431;DHT22;2228;48.140;11.488;2022-12-18T08:50:05;-1.90;99.90
4431;DHT22;2228;48.140;11.488;2022-12-18T08:52:33;-1.70;99.90
4431;DHT22;2228;48.140;11.488;2022-12-18T08:55:00;-1.70;99.90
4431;DHT22;2228;48.140;11.488;2022-12-18T08:57:27;-1.70;99.90
4431;DHT22;2228;48.140;11.488;2022-12-18T08:59:54;-1.70;99.90
4431;DHT22;2228;48.140;11.488;2022-12-18T09:02:21;-2.10;99.90
4431;DHT22;2228;48.140;11.488;2022-12-18T09:04:48;-2.30;99.90
4431;DHT22;2228;48.140;11.488;2022-12-18T09:07:15;-2.00;99.90
4431;DHT22;2228;48.140;11.488;2022-12-18T09:09:44;-2.10;99.90
4431;DHT22;2228;48.140;11.488;2022-12-18T09:12:11;-1.90;99.90
4431;DHT22;2228;48.140;11.488;2022-12-18T09:14:37;-1.90;99.90
4431;DHT22;2228;48.140;11.488;2022-12-18T09:17:04;-1.80;99.90
4431;DHT22;2228;48.140;11.488;2022-12-18T09:19:31;-1.80;99.90
4431;DHT22;2228;48.140;11.488;2022-12-18T09:21:58;-1.80;99.90
4431;DHT22;2228;48.140;11.488;2022-12-18T09:24:25;-1.60;99.90
4431;DHT22;2228;48.140;11.488;2022-12-18T09:26:54;-1.70;99.90
4431;DHT22;2228;48.140;11.488;2022-12-18T09:29:21;-1.80;99.90
4431;DHT22;2228;48.140;11.488;2022-12-18T09:31:48;-1.60;99.90
4431;DHT22;2228;48.140;11.488;2022-12-18T09:34:16;-1.50;99.90
4431;DHT22;2228;48.140;11.488;2022-12-18T09:36:43;-1.80;99.90
4431;DHT22;2228;48.140;11.488;2022-12-18T09:39:10;-1.70;99.90
4431;DHT22;2228;48.140;11.488;2022-12-18T09:41:46;-1.60;99.90
4431;DHT22;2228;48.140;11.488;2022-12-18T09:44:28;-1.50;99.90
4431;DHT22;2228;48.140;11.488;2022-12-18T09:47:09;-1.40;99.90
4431;DHT22;2228;48.140;11.488;2022-12-18T09:49:42;-1.30;99.90
4431;DHT22;2228;48.140;11.488;2022-12-18T09:52:14;-1.30;99.90
4431;DHT22;2228;48.140;11.488;2022-12-18T09:54:44;-1.20;99.90
4431;DHT22;2228;48.140;11.488;2022-12-18T09:57:15;-1.10;99.90
4431;DHT22;2228;48.140;11.488;2022-12-18T09:59:51;-0.90;99.90
4431;DHT22;2228;48.140;11.488;2022-12-18T10:02:21;-0.80;99.90
4431;DHT22;2228;48.140;11.488;2022-12-18T10:05:03;-0.70;99.90
4431;DHT22;2228;48.140;11.488;2022-12-18T10:07:43;-0.60;99.90
4431;DHT22;2228;48.140;11.488;2022-12-18T10:10:24;-0.90;99.90
4431;DHT22;2228;48.140;11.488;2022-12-18T10:12:59;-1.20;99.90
4431;DHT22;2228;48.140;11.488;2022-12-18T10:15:33;-1.20;99.90
4431;DHT22;2228;48.140;11.488;2022-12-18T10:18:10;-0.90;99.90
4431;DHT22;2228;48.140;11.488;2022-12-18T10:20:44;-0.90;99.90
4431;DHT22;2228;48.140;11.488;2022-12-18T10:23:15;-0.80;99.90
4431;DHT22;2228;48.140;11.488;2022-12-18T10:25:53;-0.70;99.90
4431;DHT22;2228;48.140;11.488;2022-12-18T10:28:23;-0.60;99.90
4431;DHT22;2228;48.140;11.488;2022-12-18T10:30:52;-0.60;99.90
4431;DHT22;2228;48.140;11.488;2022-12-18T10:33:21;-0.70;99.90
4431;DHT22;2228;48.140;11.488;2022-12-18T10:35:50;-0.70;99.90
4431;DHT22;2228;48.140;11.488;2022-12-18T10:38:23;-0.70;99.90
4431;DHT22;2228;48.140;11.488;2022-12-18T10:40:52;-0.50;99.90
4431;DHT22;2228;48.140;11.488;2022-12-18T10:43:22;-0.30;99.90
4431;DHT22;2228;48.140;11.488;2022-12-18T10:46:15;-0.20;99.90
4431;DHT22;2228;48.140;11.488;2022-12-18T10:48:53;-0.20;99.90
4431;DHT22;2228;48.140;11.488;2022-12-18T10:51:23;0.00;99.90
4431;DHT22;2228;48.140;11.488;2022-12-18T10:53:59;-0.10;99.90
4431;DHT22;2228;48.140;11.488;2022-12-18T10:56:28;-0.20;99.90
4431;DHT22;2228;48.140;11.488;2022-12-18T10:58:59;-0.20;99.90
4431;DHT22;2228;48.140;11.488;2022-12-18T11:01:34;-0.10;99.90
4431;DHT22;2228;48.140;11.488;2022-12-18T11:04:17;-0.10;99.90
4431;DHT22;2228;48.140;11.488;2022-12-18T11:06:56;0.00;99.90
4431;DHT22;2228;48.140;11.488;2022-12-18T11:09:25;0.10;99.90
4431;DHT22;2228;48.140;11.488;2022-12-18T11:11:54;0.20;99.90
4431;DHT22;2228;48.140;11.488;2022-12-18T11:14:27;0.20;99.90
4431;DHT22;2228;48.140;11.488;2022-12-18T11:16:56;0.30;99.90
4431;DHT22;2228;48.140;11.488;2022-12-18T11:19:34;0.30;96.90
4431;DHT22;2228;48.140;11.488;2022-12-18T11:22:17;0.40;99.90
4431;DHT22;2228;48.140;11.488;2022-12-18T11:24:52;0.40;96.50
4431;DHT22;2228;48.140;11.488;2022-12-18T11:27:21;0.30;94.90
4431;DHT22;2228;48.140;11.488;2022-12-18T11:29:50;0.40;96.10
4431;DHT22;2228;48.140;11.488;2022-12-18T11:32:34;0.50;82.60
4431;DHT22;2228;48.140;11.488;2022-12-18T11:35:10;0.60;86.10
4431;DHT22;2228;48.140;11.488;2022-12-18T11:37:39;0.60;89.50
4431;DHT22;2228;48.140;11.488;2022-12-18T11:40:13;0.70;89.10
4431;DHT22;2228;48.140;11.488;2022-12-18T11:42:45;0.60;72.90
4431;DHT22;2228;48.140;11.488;2022-12-18T11:45:27;0.70;71.00
4431;DHT22;2228;48.140;11.488;2022-12-18T11:48:01;0.80;59.70
4431;DHT22;2228;48.140;11.488;2022-12-18T11:50:32;0.70;65.30
4431;DHT22;2228;48.140;11.488;2022-12-18T11:53:01;0.70;69.40
4431;DHT22;2228;48.140;11.488;2022-12-18T11:55:36;0.70;55.20
4431;DHT22;2228;48.140;11.488;2022-12-18T11:58:11;0.40;91.40
4431;DHT22;2228;48.140;11.488;2022-12-18T12:00:45;0.50;96.40
4431;DHT22;2228;48.140;11.488;2022-12-18T12:03:27;0.60;93.00
4431;DHT22;2228;48.140;11.488;2022-12-18T12:06:09;0.50;90.90
4431;DHT22;2228;48.140;11.488;2022-12-18T12:08:53;0.50;87.50
4431;DHT22;2228;48.140;11.488;2022-12-18T12:11:28;0.50;82.60
4431;DHT22;2228;48.140;11.488;2022-12-18T12:14:15;0.50;93.30
4431;DHT22;2228;48.140;11.488;2022-12-18T12:16:50;0.50;83.50
4431;DHT22;2228;48.140;11.488;2022-12-18T12:19:35;0.40;71.50
4431;DHT22;2228;48.140;11.488;2022-12-18T12:22:07;0.20;68.20
4431;DHT22;2228;48.140;11.488;2022-12-18T12:24:46;0.10;99.80
4431;DHT22;2228;48.140;11.488;2022-12-18T12:27:23;0.30;93.20
4431;DHT22;2228;48.140;11.488;2022-12-18T12:30:00;0.30;95.10
4431;DHT22;2228;48.140;11.488;2022-12-18T12:32:43;0.50;92.80
4431;DHT22;2228;48.140;11.488;2022-12-18T12:35:25;0.50;96.80
4431;DHT22;2228;48.140;11.488;2022-12-18T12:38:05;0.60;93.60
4431;DHT22;2228;48.140;11.488;2022-12-18T12:40:35;0.60;71.70
4431;DHT22;2228;48.140;11.488;2022-12-18T12:43:16;0.60;90.20
4431;DHT22;2228;48.140;11.488;2022-12-18T12:45:48;0.60;94.40
4431;DHT22;2228;48.140;11.488;2022-12-18T12:48:20;0.70;69.10
4431;DHT22;2228;48.140;11.488;2022-12-18T12:50:52;0.60;75.60
4431;DHT22;2228;48.140;11.488;2022-12-18T12:53:27;0.60;78.20
4431;DHT22;2228;48.140;11.488;2022-12-18T12:55:55;0.60;68.40
4431;DHT22;2228;48.140;11.488;2022-12-18T12:58:31;0.60;58.90
4431;DHT22;2228;48.140;11.488;2022-12-18T13:01:08;0.50;55.80
4431;DHT22;2228;48.140;11.488;2022-12-18T13:03:43;0.40;71.30
4431;DHT22;2228;48.140;11.488;2022-12-18T13:06:22;0.30;65.30
4431;DHT22;2228;48.140;11.488;2022-12-18T13:08:54;0.30;64.50
4431;DHT22;2228;48.140;11.488;2022-12-18T13:11:39;0.20;93.10
4431;DHT22;2228;48.140;11.488;2022-12-18T13:14:27;0.20;95.90
4431;DHT22;2228;48.140;11.488;2022-12-18T13:17:29;0.30;90.40
4431;DHT22;2228;48.140;11.488;2022-12-18T13:20:11;0.20;84.50
4431;DHT22;2228;48.140;11.488;2022-12-18T13:22:43;0.10;83.60
4431;DHT22;2228;48.140;11.488;2022-12-18T13:25:43;-0.60;84.60
4431;DHT22;2228;48.140;11.488;2022-12-18T13:28:12;-1.20;99.90
4431;DHT22;2228;48.140;11.488;2022-12-18T13:30:56;-1.30;99.90
4431;DHT22;2228;48.140;11.488;2022-12-18T13:33:47;-1.20;99.90
4431;DHT22;2228;48.140;11.488;2022-12-18T13:36:25;-1.00;99.90
4431;DHT22;2228;48.140;11.488;2022-12-18T13:45:43;-1.00;99.90
4431;DHT22;2228;48.140;11.488;2022-12-18T13:48:21;-1.20;99.90
4431;DHT22;2228;48.140;11.488;2022-12-18T13:50:53;-1.30;99.90
4431;DHT22;2228;48.140;11.488;2022-12-18T13:53:24;-1.20;99.90
4431;DHT22;2228;48.140;11.488;2022-12-18T13:55:54;-1.20;99.90
4431;DHT22;2228;48.140;11.488;2022-12-18T13:58:21;-1.20;99.90
4431;DHT22;2228;48.140;11.488;2022-12-18T14:00:48;-1.20;99.90
4431;DHT22;2228;48.140;11.488;2022-12-18T14:03:18;-1.30;99.90
4431;DHT22;2228;48.140;11.488;2022-12-18T14:05:55;-1.40;99.90
4431;DHT22;2228;48.140;11.488;2022-12-18T14:08:32;-1.50;99.90
4431;DHT22;2228;48.140;11.488;2022-12-18T14:11:03;-1.50;99.90
4431;DHT22;2228;48.140;11.488;2022-12-18T14:13:33;-1.40;99.90
4431;DHT22;2228;48.140;11.488;2022-12-18T14:16:02;-1.50;99.90
4431;DHT22;2228;48.140;11.488;2022-12-18T14:18:37;-1.50;99.90
4431;DHT22;2228;48.140;11.488;2022-12-18T14:21:05;-1.70;99.90
4431;DHT22;2228;48.140;11.488;2022-12-18T14:23:35;-2.00;99.90
4431;DHT22;2228;48.140;11.488;2022-12-18T14:26:20;-1.90;99.90
4431;DHT22;2228;48.140;11.488;2022-12-18T14:28:48;-2.00;99.90
4431;DHT22;2228;48.140;11.488;2022-12-18T14:31:18;-1.90;99.90
4431;DHT22;2228;48.140;11.488;2022-12-18T14:33:47;-1.80;99.90
4431;DHT22;2228;48.140;11.488;2022-12-18T14:36:16;-2.00;99.90
4431;DHT22;2228;48.140;11.488;2022-12-18T14:38:48;-2.20;99.90
4431;DHT22;2228;48.140;11.488;2022-12-18T14:41:18;-2.80;99.90
4431;DHT22;2228;48.140;11.488;2022-12-18T14:43:46;-2.70;99.90
4431;DHT22;2228;48.140;11.488;2022-12-18T14:46:34;-2.50;99.90
4431;DHT22;2228;48.140;11.488;2022-12-18T14:49:03;-2.40;99.90
4431;DHT22;2228;48.140;11.488;2022-12-18T14:51:33;-2.30;99.90
4431;DHT22;2228;48.140;11.488;2022-12-18T14:54:02;-2.40;99.90
4431;DHT22;2228;48.140;11.488;2022-12-18T14:56:36;-2.50;99.90
4431;DHT22;2228;48.140;11.488;2022-12-18T14:59:04;-2.40;99.90
4431;DHT22;2228;48.140;11.488;2022-12-18T15:01:35;-2.40;99.90
4431;DHT22;2228;48.140;11.488;2022-12-18T15:04:04;-2.40;99.90
4431;DHT22;2228;48.140;11.488;2022-12-18T15:06:34;-2.50;99.90
4431;DHT22;2228;48.140;11.488;2022-12-18T15:09:04;-2.50;99.90
4431;DHT22;2228;48.140;11.488;2022-12-18T15:11:36;-2.40;99.90
4431;DHT22;2228;48.140;11.488;2022-12-18T15:14:24;-2.70;99.90
4431;DHT22;2228;48.140;11.488;2022-12-18T15:16:57;-3.00;99.90
4431;DHT22;2228;48.140;11.488;2022-12-18T15:19:31;-3.30;1.00
4431;DHT22;2228;48.140;11.488;2022-12-18T15:21:58;-3.30;1.00
4431;DHT22;2228;48.140;11.488;2022-12-18T15:24:30;-3.30;1.00
4431;DHT22;2228;48.140;11.488;2022-12-18T15:26:59;-3.30;1.00
4431;DHT22;2228;48.140;11.488;2022-12-18T15:29:27;-3.00;1.00
4431;DHT22;2228;48.140;11.488;2022-12-18T15:32:02;-2.90;99.90
4431;DHT22;2228;48.140;11.488;2022-12-18T15:34:30;-2.90;99.90
4431;DHT22;2228;48.140;11.488;2022-12-18T15:36:59;-3.30;99.90
4431;DHT22;2228;48.140;11.488;2022-12-18T15:39:27;-3.40;1.00
4431;DHT22;2228;48.140;11.488;2022-12-18T15:41:54;-3.50;1.00
4431;DHT22;2228;48.140;11.488;2022-12-18T15:44:40;-3.60;1.00
4431;DHT22;2228;48.140;11.488;2022-12-18T15:47:12;-3.60;1.00
4431;DHT22;2228;48.140;11.488;2022-12-18T15:49:39;-3.80;1.00
4431;DHT22;2228;48.140;11.488;2022-12-18T15:52:07;-4.00;1.00
4431;DHT22;2228;48.140;11.488;2022-12-18T15:54:38;-3.90;1.00
4431;DHT22;2228;48.140;11.488;2022-12-18T15:57:22;-3.50;1.00
4431;DHT22;2228;48.140;11.488;2022-12-18T15:59:52;-3.40;1.00
4431;DHT22;2228;48.140;11.488;2022-12-18T16:02:20;-3.20;1.00
4431;DHT22;2228;48.140;11.488;2022-12-18T16:04:48;-3.20;1.00
4431;DHT22;2228;48.140;11.488;2022-12-18T16:07:15;-3.10;1.00
4431;DHT22;2228;48.140;11.488;2022-12-18T16:09:42;-3.10;1.00
4431;DHT22;2228;48.140;11.488;2022-12-18T16:12:16;-3.20;1.00
4431;DHT22;2228;48.140;11.488;2022-12-18T16:14:44;-3.10;1.00
4431;DHT22;2228;48.140;11.488;2022-12-18T16:17:13;-3.00;1.00
4431;DHT22;2228;48.140;11.488;2022-12-18T16:19:40;-3.00;1.00
4431;DHT22;2228;48.140;11.488;2022-12-18T16:22:17;-3.00;1.00
4431;DHT22;2228;48.140;11.488;2022-12-18T16:24:44;-2.90;99.90